createdAt,value
2019-03-31T00:03:59.040Z,7.60
2019-03-31T00:09:06.861Z,7.50
2019-03-31T00:14:13.069Z,7.46
2019-03-31T00:19:19.340Z,7.50
2019-03-31T00:24:25.583Z,7.51
2019-03-31T00:29:31.818Z,7.55
2019-03-31T00:34:38.019Z,7.53
2019-03-31T00:39:44.020Z,7.62
2019-03-31T00:44:50.100Z,7.56
2019-03-31T00:49:56.400Z,7.54
2019-03-31T00:55:02.480Z,7.66
2019-03-31T01:00:11.040Z,7.72
2019-03-31T01:05:17.599Z,7.68
2019-03-31T01:10:24.020Z,7.64
2019-03-31T01:15:30.843Z,7.74
2019-03-31T01:20:37.232Z,7.74
2019-03-31T01:25:43.461Z,7.51
2019-03-31T01:30:49.939Z,7.25
2019-03-31T01:35:56.002Z,7.26
2019-03-31T01:41:02.141Z,7.29
2019-03-31T01:46:09.900Z,7.29
2019-03-31T01:51:16.137Z,7.23
2019-03-31T01:56:23.159Z,7.05
2019-03-31T02:01:29.210Z,7.00
2019-03-31T02:06:35.566Z,6.95
2019-03-31T02:11:41.658Z,7.01
2019-03-31T02:16:47.770Z,6.97
2019-03-31T02:21:53.774Z,7.00
2019-03-31T02:27:00.201Z,6.96
2019-03-31T02:32:22.612Z,6.93
2019-03-31T02:37:14.127Z,6.98
2019-03-31T02:42:20.168Z,7.04
2019-03-31T02:47:26.256Z,6.97
2019-03-31T02:52:32.260Z,6.88
2019-03-31T02:57:39.856Z,6.94
2019-03-31T03:02:47.451Z,6.98
2019-03-31T03:07:54.478Z,7.06
2019-03-31T03:13:03.430Z,7.03
2019-03-31T03:18:09.595Z,7.02
2019-03-31T03:23:15.729Z,7.01
2019-03-31T03:28:21.778Z,7.15
2019-03-31T03:33:27.810Z,7.26
2019-03-31T03:38:33.896Z,7.41
2019-03-31T03:43:54.290Z,7.53
2019-03-31T03:48:47.879Z,7.66
2019-03-31T03:53:53.930Z,7.38
2019-03-31T03:58:59.816Z,6.88
2019-03-31T04:04:05.813Z,6.72
2019-03-31T04:09:11.887Z,6.65
2019-03-31T04:14:17.999Z,6.55
2019-03-31T04:19:23.987Z,6.68
2019-03-31T04:24:30.039Z,6.81
2019-03-31T04:29:36.116Z,6.73
2019-03-31T04:34:42.138Z,6.49
2019-03-31T04:39:48.128Z,6.64
2019-03-31T04:44:54.209Z,6.69
2019-03-31T04:50:00.378Z,6.63
2019-03-31T04:55:06.677Z,6.76
2019-03-31T05:00:12.686Z,7.09
2019-03-31T05:05:18.731Z,7.15
2019-03-31T05:10:24.824Z,6.93
2019-03-31T05:15:30.922Z,6.67
2019-03-31T05:20:36.894Z,6.95
2019-03-31T05:25:42.942Z,6.88
2019-03-31T05:30:48.907Z,6.62
2019-03-31T05:35:55.032Z,6.62
2019-03-31T05:41:01.302Z,6.91
2019-03-31T05:46:07.307Z,7.05
2019-03-31T05:51:13.262Z,6.77
2019-03-31T05:56:20.026Z,6.71
2019-03-31T06:01:26.163Z,6.86
2019-03-31T06:06:32.266Z,6.74
2019-03-31T06:11:38.168Z,6.47
2019-03-31T06:16:44.228Z,6.42
2019-03-31T06:21:50.322Z,6.28
2019-03-31T06:26:56.492Z,6.16
2019-03-31T06:32:02.493Z,6.15
2019-03-31T06:37:08.542Z,6.42
2019-03-31T06:42:14.653Z,6.73
2019-03-31T06:47:20.623Z,6.86
2019-03-31T06:52:26.887Z,7.23
2019-03-31T06:57:32.852Z,7.46
2019-03-31T07:02:38.829Z,8.12
2019-03-31T07:07:44.882Z,8.91
2019-03-31T07:12:50.892Z,9.40
2019-03-31T07:17:56.921Z,9.58
2019-03-31T07:23:02.937Z,9.88
2019-03-31T07:28:09.171Z,10.18
2019-03-31T07:33:15.146Z,10.53
2019-03-31T07:38:21.291Z,11.03
2019-03-31T07:43:27.441Z,11.61
2019-03-31T07:48:33.526Z,11.61
2019-03-31T07:53:39.506Z,11.71
2019-03-31T07:58:45.705Z,11.50
2019-03-31T08:03:51.821Z,11.47
2019-03-31T08:08:58.206Z,11.54
2019-03-31T08:14:04.648Z,11.38
2019-03-31T08:19:10.706Z,11.33
2019-03-31T08:24:16.631Z,11.31
2019-03-31T08:29:22.627Z,11.34
2019-03-31T08:34:28.859Z,11.54
2019-03-31T08:39:34.982Z,11.89
2019-03-31T08:44:41.007Z,12.07
2019-03-31T08:49:46.955Z,12.12
2019-03-31T08:54:52.982Z,12.34
2019-03-31T08:59:58.976Z,12.48
2019-03-31T09:05:06.177Z,12.89
2019-03-31T09:10:12.554Z,13.95
2019-03-31T09:15:18.565Z,15.02
2019-03-31T09:20:24.552Z,15.92
2019-03-31T09:25:30.521Z,16.75
2019-03-31T09:30:36.496Z,17.90
2019-03-31T09:35:42.572Z,18.59
2019-03-31T09:40:48.664Z,18.92
2019-03-31T09:45:54.567Z,18.92
2019-03-31T09:51:00.617Z,18.64
2019-03-31T09:56:06.681Z,18.98
2019-03-31T10:01:13.141Z,18.92
2019-03-31T10:06:29.538Z,18.92
2019-03-31T10:11:27.129Z,19.32
2019-03-31T10:16:33.191Z,18.91
2019-03-31T10:21:39.249Z,19.48
2019-03-31T10:26:45.252Z,19.89
2019-03-31T10:31:51.665Z,20.33
2019-03-31T10:36:57.687Z,20.32
2019-03-31T10:42:03.694Z,20.06
2019-03-31T10:47:09.747Z,20.17
2019-03-31T10:52:15.921Z,20.23
2019-03-31T10:57:22.046Z,19.88
2019-03-31T11:02:28.032Z,20.70
2019-03-31T11:07:34.076Z,20.86
2019-03-31T11:12:40.166Z,21.34
2019-03-31T11:17:46.106Z,21.15
2019-03-31T11:22:56.969Z,21.45
2019-03-31T11:28:03.101Z,21.57
2019-03-31T11:33:09.378Z,21.61
2019-03-31T11:38:16.337Z,21.89
2019-03-31T11:43:22.601Z,21.41
2019-03-31T11:48:29.269Z,21.00
2019-03-31T11:53:35.399Z,19.87
2019-03-31T11:58:41.600Z,20.48
2019-03-31T12:03:48.209Z,20.70
2019-03-31T12:08:54.332Z,20.01
2019-03-31T12:14:00.451Z,20.55
2019-03-31T12:19:06.660Z,20.39
2019-03-31T12:24:12.734Z,20.13
2019-03-31T12:29:19.199Z,19.83
2019-03-31T12:34:26.430Z,19.62
2019-03-31T12:39:33.017Z,19.43
2019-03-31T12:44:39.201Z,19.45
2019-03-31T12:49:45.400Z,19.24
2019-03-31T12:54:51.561Z,18.90
2019-03-31T12:59:57.615Z,18.71
2019-03-31T13:05:04.279Z,18.45
2019-03-31T13:10:10.620Z,18.84
2019-03-31T13:15:16.700Z,18.51
2019-03-31T13:20:23.221Z,17.79
2019-03-31T13:25:29.340Z,17.49
2019-03-31T13:30:35.382Z,17.18
2019-03-31T13:35:41.592Z,16.92
2019-03-31T13:40:50.459Z,16.63
2019-03-31T13:45:56.134Z,16.86
2019-03-31T13:51:02.353Z,16.86
2019-03-31T13:56:08.615Z,17.02
2019-03-31T14:01:14.802Z,17.10
2019-03-31T14:06:21.237Z,16.72
2019-03-31T14:11:27.243Z,17.06
2019-03-31T14:16:35.702Z,16.90
2019-03-31T14:21:41.953Z,16.68
2019-03-31T14:26:48.121Z,16.53
2019-03-31T14:31:54.658Z,16.14
2019-03-31T14:37:00.845Z,16.03
2019-03-31T14:42:07.142Z,16.24
2019-03-31T14:47:13.702Z,16.16
2019-03-31T14:52:27.260Z,15.61
2019-03-31T14:57:27.823Z,15.43
2019-03-31T15:02:33.961Z,15.17
2019-03-31T15:07:40.081Z,15.17
2019-03-31T15:12:46.442Z,15.09
2019-03-31T15:17:52.622Z,15.10
2019-03-31T15:22:59.181Z,15.18
2019-03-31T15:28:05.751Z,15.14
2019-03-31T15:33:11.881Z,14.90
2019-03-31T15:38:17.972Z,14.82
2019-03-31T15:43:24.042Z,14.88
2019-03-31T15:48:30.220Z,14.70
2019-03-31T15:53:36.454Z,14.51
2019-03-31T15:58:42.585Z,14.44
2019-03-31T16:03:48.861Z,14.19
2019-03-31T16:08:54.361Z,14.09
2019-03-31T16:14:00.281Z,13.86
2019-03-31T16:19:05.958Z,13.68
2019-03-31T16:24:11.661Z,13.61
2019-03-31T16:29:17.401Z,13.67
2019-03-31T16:34:22.900Z,13.49
2019-03-31T16:39:37.535Z,13.29
2019-03-31T16:44:35.732Z,13.08
2019-03-31T16:49:41.313Z,12.85
2019-03-31T16:54:46.945Z,12.80
2019-03-31T16:59:52.551Z,12.82
2019-03-31T17:04:58.186Z,12.74
2019-03-31T17:10:04.005Z,12.57
2019-03-31T17:15:09.986Z,12.37
2019-03-31T17:20:17.813Z,12.25
2019-03-31T17:25:23.246Z,12.16
2019-03-31T17:30:28.985Z,12.07
2019-03-31T17:35:34.461Z,11.94
2019-03-31T17:40:39.831Z,11.84
2019-03-31T17:45:47.982Z,11.70
2019-03-31T17:50:54.527Z,11.65
2019-03-31T17:56:00.549Z,11.56
2019-03-31T18:01:06.285Z,11.39
2019-03-31T18:06:12.927Z,11.28
2019-03-31T18:11:18.867Z,11.16
2019-03-31T18:16:25.307Z,11.05
2019-03-31T18:21:30.986Z,10.92
2019-03-31T18:26:36.801Z,10.87
2019-03-31T18:31:42.347Z,10.76
2019-03-31T18:36:47.870Z,10.69
2019-03-31T18:41:53.586Z,10.62
2019-03-31T18:46:59.148Z,10.51
2019-03-31T18:52:04.626Z,10.46
2019-03-31T18:57:18.098Z,10.43
2019-03-31T19:02:32.006Z,10.41
2019-03-31T19:07:47.249Z,10.34
2019-03-31T19:13:06.352Z,10.26
2019-03-31T19:18:20.208Z,10.24
2019-03-31T19:23:34.089Z,10.25
2019-03-31T19:28:54.681Z,10.24
2019-03-31T19:34:07.987Z,10.19
2019-03-31T19:39:24.507Z,10.20
2019-03-31T19:44:48.829Z,10.20
2019-03-31T19:50:03.267Z,10.21
2019-03-31T19:55:17.687Z,10.16
2019-03-31T20:00:33.459Z,9.99
2019-03-31T20:05:48.586Z,9.90
2019-03-31T20:11:01.967Z,9.93
2019-03-31T20:16:26.366Z,9.98
2019-03-31T20:21:47.227Z,9.96
2019-03-31T20:26:59.552Z,9.93
2019-03-31T20:32:15.877Z,9.93
2019-03-31T20:37:40.249Z,9.92
2019-03-31T20:43:03.065Z,9.93
2019-03-31T20:48:08.546Z,9.97
2019-03-31T20:53:14.149Z,9.94
2019-03-31T20:58:19.888Z,9.88
2019-03-31T21:03:26.199Z,9.91
2019-03-31T21:08:31.686Z,9.87
2019-03-31T21:13:37.472Z,9.89
2019-03-31T21:18:43.287Z,9.74
2019-03-31T21:23:48.749Z,9.77
2019-03-31T21:28:54.346Z,9.71
2019-03-31T21:34:00.267Z,9.68
2019-03-31T21:39:08.169Z,9.75
2019-03-31T21:44:13.967Z,9.70
2019-03-31T21:49:19.467Z,9.62
2019-03-31T21:54:24.925Z,9.61
2019-03-31T21:59:33.372Z,9.56
2019-03-31T22:04:37.778Z,9.42
2019-03-31T22:09:43.397Z,9.53
2019-03-31T22:14:49.045Z,9.57
2019-03-31T22:19:54.638Z,9.54
2019-03-31T22:25:00.411Z,9.54
2019-03-31T22:30:06.769Z,9.48
2019-03-31T22:35:12.207Z,9.43
2019-03-31T22:40:17.770Z,9.42
2019-03-31T22:45:23.388Z,9.43
2019-03-31T22:50:28.868Z,9.40
2019-03-31T22:55:34.346Z,9.40
2019-03-31T23:00:40.014Z,9.34
2019-03-31T23:05:45.526Z,9.36
2019-03-31T23:10:51.481Z,9.37
2019-03-31T23:15:57.146Z,9.28
2019-03-31T23:21:02.626Z,9.34
2019-03-31T23:26:08.079Z,9.24
2019-03-31T23:31:13.679Z,9.16
2019-03-31T23:36:19.158Z,9.12
2019-03-31T23:41:25.193Z,9.11
2019-03-31T23:46:30.765Z,8.98
2019-03-31T23:51:36.188Z,9.04
2019-03-31T23:56:41.643Z,8.95
